createdAt,value
2018-05-17T00:01:13.105Z,99.90
2018-05-17T00:03:39.329Z,99.90
2018-05-17T00:06:05.553Z,99.90
2018-05-17T00:08:31.797Z,99.90
2018-05-17T00:10:58.149Z,99.90
2018-05-17T00:13:24.388Z,99.90
2018-05-17T00:15:50.601Z,99.90
2018-05-17T00:18:17.575Z,99.90
2018-05-17T00:20:43.798Z,99.90
2018-05-17T00:23:11.476Z,99.90
2018-05-17T00:25:37.713Z,99.90
2018-05-17T00:28:03.950Z,99.90
2018-05-17T00:30:30.911Z,99.90
2018-05-17T00:32:57.874Z,99.90
2018-05-17T00:35:24.835Z,99.90
2018-05-17T00:37:51.087Z,99.90
2018-05-17T00:40:17.321Z,99.90
2018-05-17T00:42:43.567Z,99.90
2018-05-17T00:45:09.787Z,99.90
2018-05-17T00:47:36.762Z,99.90
2018-05-17T00:50:03.103Z,99.90
2018-05-17T00:52:30.063Z,99.90
2018-05-17T00:54:56.314Z,99.90
2018-05-17T00:57:22.563Z,99.90
2018-05-17T00:59:48.786Z,99.90
2018-05-17T01:02:14.989Z,99.90
2018-05-17T01:04:41.234Z,99.90
2018-05-17T01:07:07.462Z,99.90
2018-05-17T01:09:33.703Z,99.90
2018-05-17T01:12:00.061Z,99.90
2018-05-17T01:14:26.292Z,99.90
2018-05-17T01:16:52.518Z,99.90
2018-05-17T01:19:18.768Z,99.90
2018-05-17T01:21:45.000Z,99.90
2018-05-17T01:24:11.214Z,99.90
2018-05-17T01:26:37.446Z,99.90
2018-05-17T01:29:03.702Z,99.90
2018-05-17T01:31:29.939Z,99.90
2018-05-17T01:33:56.191Z,99.90
2018-05-17T01:36:22.438Z,99.90
2018-05-17T01:38:48.694Z,99.90
2018-05-17T01:41:14.914Z,99.90
2018-05-17T01:43:41.150Z,99.90
2018-05-17T01:46:07.395Z,99.90
2018-05-17T01:48:33.636Z,99.90
2018-05-17T01:50:59.954Z,99.90
2018-05-17T01:53:26.165Z,99.90
2018-05-17T01:55:53.136Z,99.90
2018-05-17T01:58:19.382Z,99.90
2018-05-17T02:00:45.601Z,99.90
2018-05-17T02:03:11.842Z,99.90
2018-05-17T02:05:38.805Z,99.90
2018-05-17T02:08:05.773Z,99.90
2018-05-17T02:10:32.750Z,99.90
2018-05-17T02:12:59.085Z,99.90
2018-05-17T02:15:25.303Z,99.90
2018-05-17T02:17:52.279Z,99.90
2018-05-17T02:20:18.529Z,99.90
2018-05-17T02:22:44.749Z,99.90
2018-05-17T02:25:10.989Z,99.90
2018-05-17T02:27:37.928Z,99.90
2018-05-17T02:30:04.184Z,99.90
2018-05-17T02:32:31.141Z,99.90
2018-05-17T02:34:58.114Z,99.90
2018-05-17T02:37:24.345Z,99.90
2018-05-17T02:39:51.317Z,99.90
2018-05-17T02:42:17.551Z,99.90
2018-05-17T02:44:43.799Z,99.90
2018-05-17T02:47:10.010Z,99.90
2018-05-17T02:49:37.041Z,99.90
2018-05-17T02:52:03.260Z,99.90
2018-05-17T02:54:29.490Z,99.90
2018-05-17T02:56:55.712Z,99.90
2018-05-17T02:59:21.947Z,99.90
2018-05-17T03:01:48.155Z,99.90
2018-05-17T03:04:14.401Z,99.90
2018-05-17T03:06:40.650Z,99.90
2018-05-17T03:09:07.638Z,99.90
2018-05-17T03:11:33.864Z,99.90
2018-05-17T03:14:00.479Z,99.90
2018-05-17T03:16:26.715Z,99.90
2018-05-17T03:18:52.950Z,99.90
2018-05-17T03:21:19.206Z,99.90
2018-05-17T03:23:45.438Z,99.90
2018-05-17T03:26:11.664Z,99.90
2018-05-17T03:28:37.880Z,99.90
2018-05-17T03:31:04.129Z,99.90
2018-05-17T03:33:30.335Z,99.90
2018-05-17T03:35:57.324Z,99.90
2018-05-17T03:38:23.559Z,99.90
2018-05-17T03:40:49.800Z,99.90
2018-05-17T03:43:16.024Z,99.90
2018-05-17T03:45:42.266Z,99.90
2018-05-17T03:48:08.486Z,99.90
2018-05-17T03:50:35.486Z,99.90
2018-05-17T03:53:01.735Z,99.90
2018-05-17T03:55:27.976Z,99.90
2018-05-17T03:57:54.194Z,99.90
2018-05-17T04:00:20.434Z,99.90
2018-05-17T04:02:58.744Z,99.90
2018-05-17T04:05:37.044Z,99.90
2018-05-17T04:08:03.324Z,99.90
2018-05-17T04:10:29.566Z,99.90
2018-05-17T04:12:56.650Z,99.90
2018-05-17T04:15:23.661Z,99.90
2018-05-17T04:17:50.655Z,99.90
2018-05-17T04:20:16.877Z,99.90
2018-05-17T04:22:43.112Z,99.90
2018-05-17T04:25:09.351Z,99.90
2018-05-17T04:27:35.617Z,99.90
2018-05-17T04:30:01.898Z,99.90
2018-05-17T04:32:28.898Z,99.90
2018-05-17T04:34:55.134Z,99.90
2018-05-17T04:37:21.373Z,99.90
2018-05-17T04:39:47.594Z,99.90
2018-05-17T04:42:14.578Z,99.90
2018-05-17T04:44:40.802Z,99.90
2018-05-17T04:47:07.106Z,99.90
2018-05-17T04:49:33.273Z,99.90
2018-05-17T04:52:00.271Z,99.90
2018-05-17T04:54:26.521Z,99.90
2018-05-17T04:56:52.754Z,99.90
2018-05-17T04:59:18.971Z,99.90
2018-05-17T05:01:45.209Z,99.90
2018-05-17T05:04:12.176Z,99.90
2018-05-17T05:06:38.407Z,99.90
2018-05-17T05:09:04.688Z,99.90
2018-05-17T05:11:30.919Z,99.90
2018-05-17T05:13:57.153Z,99.90
2018-05-17T05:16:23.751Z,99.90
2018-05-17T05:18:50.082Z,99.90
2018-05-17T05:21:16.328Z,99.90
2018-05-17T05:23:42.567Z,99.90
2018-05-17T05:26:08.814Z,99.90
2018-05-17T05:28:35.025Z,99.90
2018-05-17T05:31:01.259Z,99.90
2018-05-17T05:33:27.467Z,99.90
2018-05-17T05:35:53.710Z,99.90
2018-05-17T05:38:19.922Z,99.90
2018-05-17T05:40:46.900Z,99.90
2018-05-17T05:43:13.164Z,99.90
2018-05-17T05:45:39.379Z,99.90
2018-05-17T05:48:05.636Z,99.90
2018-05-17T05:50:31.866Z,99.90
2018-05-17T05:52:58.115Z,99.90
2018-05-17T05:55:24.325Z,99.90
2018-05-17T05:57:50.568Z,99.90
2018-05-17T06:00:17.542Z,99.90
2018-05-17T06:02:43.785Z,99.90
2018-05-17T06:05:10.000Z,99.90
2018-05-17T06:07:36.255Z,99.90
2018-05-17T06:10:02.494Z,99.90
2018-05-17T06:12:29.472Z,99.90
2018-05-17T06:14:55.720Z,99.90
2018-05-17T06:17:22.080Z,99.90
2018-05-17T06:19:48.242Z,99.90
2018-05-17T06:22:14.470Z,99.90
2018-05-17T06:24:40.696Z,99.90
2018-05-17T06:27:06.930Z,99.90
2018-05-17T06:29:33.164Z,99.90
2018-05-17T06:31:59.412Z,99.90
2018-05-17T06:34:25.659Z,99.90
2018-05-17T06:36:51.917Z,99.90
2018-05-17T06:39:18.168Z,99.90
2018-05-17T06:41:44.413Z,99.90
2018-05-17T06:44:10.640Z,99.90
2018-05-17T06:46:36.885Z,99.90
2018-05-17T06:49:03.129Z,99.90
2018-05-17T06:51:29.379Z,99.70
2018-05-17T06:53:55.615Z,99.10
2018-05-17T06:56:21.847Z,99.20
2018-05-17T06:58:48.083Z,99.40
2018-05-17T07:01:14.398Z,98.70
2018-05-17T07:03:40.569Z,98.60
2018-05-17T07:06:06.791Z,98.60
2018-05-17T07:08:33.013Z,98.80
2018-05-17T07:10:59.243Z,98.50
2018-05-17T07:13:25.723Z,98.50
2018-05-17T07:15:51.956Z,98.00
2018-05-17T07:18:18.276Z,97.70
2018-05-17T07:20:44.445Z,97.90
2018-05-17T07:23:10.690Z,97.90
2018-05-17T07:25:36.928Z,97.70
2018-05-17T07:28:03.192Z,97.80
2018-05-17T07:30:29.410Z,97.80
2018-05-17T07:32:55.642Z,97.70
2018-05-17T07:35:21.878Z,97.30
2018-05-17T07:37:48.113Z,96.50
2018-05-17T07:40:14.337Z,96.30
2018-05-17T07:42:40.580Z,96.40
2018-05-17T07:45:06.828Z,95.90
2018-05-17T07:47:33.062Z,95.60
2018-05-17T07:49:59.306Z,95.20
2018-05-17T07:52:25.557Z,95.20
2018-05-17T07:54:51.793Z,95.20
2018-05-17T07:57:18.028Z,94.40
2018-05-17T07:59:44.254Z,94.70
2018-05-17T08:02:10.504Z,94.70
2018-05-17T08:04:36.730Z,94.30
2018-05-17T08:07:02.964Z,94.50
2018-05-17T08:09:30.008Z,94.30
2018-05-17T08:11:56.176Z,94.30
2018-05-17T08:14:22.416Z,94.10
2018-05-17T08:16:48.958Z,94.20
2018-05-17T08:19:15.190Z,94.00
2018-05-17T08:21:41.420Z,94.00
2018-05-17T08:24:07.660Z,93.80
2018-05-17T08:26:34.628Z,93.40
2018-05-17T08:29:01.628Z,93.40
2018-05-17T08:31:27.883Z,93.30
2018-05-17T08:33:54.146Z,93.30
2018-05-17T08:36:20.387Z,93.50
2018-05-17T08:38:46.642Z,93.40
2018-05-17T08:41:12.862Z,93.20
2018-05-17T08:43:39.106Z,93.00
2018-05-17T08:46:05.340Z,92.50
2018-05-17T08:48:31.582Z,92.10
2018-05-17T08:50:57.929Z,92.50
2018-05-17T08:53:24.182Z,92.30
2018-05-17T08:55:51.181Z,92.90
2018-05-17T08:58:18.139Z,92.90
2018-05-17T09:00:44.376Z,92.90
2018-05-17T09:03:10.618Z,92.20
2018-05-17T09:05:36.843Z,92.30
2018-05-17T09:08:03.067Z,92.30
2018-05-17T09:10:29.287Z,92.30
2018-05-17T09:12:55.503Z,92.40
2018-05-17T09:15:21.753Z,92.10
2018-05-17T09:17:47.981Z,91.20
2018-05-17T09:20:14.240Z,90.70
2018-05-17T09:22:40.481Z,90.70
2018-05-17T09:25:06.744Z,90.40
2018-05-17T09:27:32.949Z,90.50
2018-05-17T09:29:59.189Z,90.90
2018-05-17T09:32:25.407Z,90.90
2018-05-17T09:34:51.637Z,91.00
2018-05-17T09:37:17.861Z,91.10
2018-05-17T09:39:44.091Z,90.60
2018-05-17T09:42:10.299Z,90.70
2018-05-17T09:44:36.563Z,91.00
2018-05-17T09:47:02.809Z,90.80
2018-05-17T09:49:29.058Z,90.60
2018-05-17T09:51:56.017Z,90.80
2018-05-17T09:54:22.259Z,90.80
2018-05-17T09:56:48.513Z,91.10
2018-05-17T09:59:15.486Z,90.70
2018-05-17T10:01:41.774Z,91.00
2018-05-17T10:04:07.994Z,90.70
2018-05-17T10:06:34.196Z,91.00
2018-05-17T10:09:00.465Z,90.70
2018-05-17T10:11:27.364Z,91.50
2018-05-17T10:13:54.326Z,91.90
2018-05-17T10:16:21.302Z,92.10
2018-05-17T10:18:47.557Z,92.10
2018-05-17T10:21:13.784Z,92.60
2018-05-17T10:23:40.014Z,92.70
2018-05-17T10:26:06.296Z,92.60
2018-05-17T10:28:32.521Z,93.00
2018-05-17T10:30:58.750Z,93.20
2018-05-17T10:33:24.964Z,93.40
2018-05-17T10:35:51.216Z,93.60
2018-05-17T10:38:17.431Z,93.80
2018-05-17T10:40:43.675Z,93.90
2018-05-17T10:43:09.928Z,94.00
2018-05-17T10:45:37.802Z,94.50
2018-05-17T10:48:04.786Z,94.50
2018-05-17T10:50:31.008Z,94.50
2018-05-17T10:52:57.229Z,94.30
2018-05-17T10:55:23.492Z,94.20
2018-05-17T10:57:49.707Z,93.70
2018-05-17T11:00:15.950Z,93.70
2018-05-17T11:02:42.227Z,93.80
2018-05-17T11:05:08.433Z,93.30
2018-05-17T11:07:34.665Z,93.00
2018-05-17T11:10:00.901Z,91.90
2018-05-17T11:12:27.131Z,91.30
2018-05-17T11:14:53.372Z,91.50
2018-05-17T11:17:19.619Z,91.00
2018-05-17T11:19:45.933Z,89.10
2018-05-17T11:22:12.141Z,84.90
2018-05-17T11:24:38.350Z,81.70
2018-05-17T11:27:04.603Z,78.90
2018-05-17T11:29:30.831Z,74.90
2018-05-17T11:31:57.087Z,72.70
2018-05-17T11:34:24.065Z,72.30
2018-05-17T11:36:51.043Z,73.50
2018-05-17T11:39:17.277Z,73.50
2018-05-17T11:41:43.544Z,74.10
2018-05-17T11:44:09.825Z,74.10
2018-05-17T11:46:36.038Z,75.10
2018-05-17T11:49:02.260Z,76.50
2018-05-17T11:51:28.493Z,77.00
2018-05-17T11:53:54.701Z,77.80
2018-05-17T11:56:21.690Z,77.40
2018-05-17T11:58:47.929Z,77.30
2018-05-17T12:01:14.187Z,78.70
2018-05-17T12:03:40.413Z,80.10
2018-05-17T12:06:06.746Z,81.00
2018-05-17T12:08:32.965Z,82.30
2018-05-17T12:10:59.954Z,85.00
2018-05-17T12:13:26.180Z,84.90
2018-05-17T12:15:52.439Z,86.70
2018-05-17T12:18:18.641Z,88.20
2018-05-17T12:20:45.641Z,90.40
2018-05-17T12:23:11.904Z,90.40
2018-05-17T12:25:38.128Z,90.90
2018-05-17T12:28:04.386Z,91.20
2018-05-17T12:30:30.636Z,91.40
2018-05-17T12:32:56.873Z,91.70
2018-05-17T12:35:23.108Z,92.10
2018-05-17T12:37:49.347Z,92.50
2018-05-17T12:40:15.581Z,92.80
2018-05-17T12:42:41.892Z,93.00
2018-05-17T12:45:08.864Z,93.70
2018-05-17T12:47:35.150Z,93.70
2018-05-17T12:50:01.370Z,93.90
2018-05-17T12:52:27.612Z,94.30
2018-05-17T12:54:53.825Z,94.50
2018-05-17T12:57:20.056Z,94.60
2018-05-17T12:59:46.284Z,94.40
2018-05-17T13:02:12.535Z,94.20
2018-05-17T13:04:38.799Z,94.70
2018-05-17T13:07:05.106Z,94.80
2018-05-17T13:09:31.314Z,95.10
2018-05-17T13:11:57.578Z,95.10
2018-05-17T13:14:24.557Z,95.10
2018-05-17T13:16:50.806Z,95.10
2018-05-17T13:19:17.014Z,95.30
2018-05-17T13:21:43.267Z,95.50
2018-05-17T13:24:09.489Z,95.80
2018-05-17T13:26:36.493Z,95.70
2018-05-17T13:29:02.753Z,95.70
2018-05-17T13:31:28.973Z,95.80
2018-05-17T13:33:55.775Z,95.70
2018-05-17T13:36:22.744Z,95.70
2018-05-17T13:38:49.727Z,95.60
2018-05-17T13:41:16.000Z,95.60
2018-05-17T13:43:42.284Z,95.20
2018-05-17T13:46:09.269Z,94.70
2018-05-17T13:48:35.610Z,94.70
2018-05-17T13:51:01.796Z,93.80
2018-05-17T13:53:28.055Z,94.40
2018-05-17T13:55:55.015Z,93.70
2018-05-17T13:58:21.264Z,93.70
2018-05-17T14:00:48.229Z,93.50
2018-05-17T14:03:15.223Z,92.90
2018-05-17T14:05:41.471Z,92.60
2018-05-17T14:08:07.705Z,92.40
2018-05-17T14:10:33.922Z,92.50
2018-05-17T14:13:00.159Z,92.40
2018-05-17T14:15:26.390Z,92.20
2018-05-17T14:17:52.641Z,91.90
2018-05-17T14:20:18.873Z,92.10
2018-05-17T14:22:45.135Z,92.10
2018-05-17T14:25:11.381Z,92.00
2018-05-17T14:27:37.623Z,91.90
2018-05-17T14:30:04.609Z,91.00
2018-05-17T14:32:30.853Z,91.00
2018-05-17T14:34:57.083Z,90.60
2018-05-17T14:37:23.310Z,89.40
2018-05-17T14:39:49.556Z,87.60
2018-05-17T14:42:15.795Z,87.80
2018-05-17T14:44:42.070Z,87.40
2018-05-17T14:47:08.311Z,85.50
2018-05-17T14:49:34.596Z,85.30
2018-05-17T14:52:00.812Z,84.90
2018-05-17T14:54:27.796Z,84.20
2018-05-17T14:56:54.026Z,84.10
2018-05-17T14:59:20.286Z,83.80
2018-05-17T15:01:46.530Z,85.40
2018-05-17T15:04:12.814Z,85.20
2018-05-17T15:06:39.054Z,84.70
2018-05-17T15:09:06.085Z,85.10
2018-05-17T15:11:32.322Z,85.10
2018-05-17T15:13:58.576Z,86.70
2018-05-17T15:16:24.804Z,87.90
2018-05-17T15:18:51.054Z,89.10
2018-05-17T15:21:17.269Z,90.20
2018-05-17T15:23:43.530Z,90.80
2018-05-17T15:26:09.792Z,91.20
2018-05-17T15:28:36.021Z,91.50
2018-05-17T15:31:02.263Z,91.60
2018-05-17T15:33:28.512Z,91.90
2018-05-17T15:36:01.599Z,92.20
2018-05-17T15:38:27.850Z,92.60
2018-05-17T15:40:54.113Z,92.30
2018-05-17T15:43:21.133Z,92.10
2018-05-17T15:45:47.532Z,92.00
2018-05-17T15:48:14.698Z,92.50
2018-05-17T15:50:41.001Z,92.50
2018-05-17T15:53:07.267Z,92.60
2018-05-17T15:55:34.271Z,93.30
2018-05-17T15:58:00.546Z,93.30
2018-05-17T16:00:26.815Z,93.80
2018-05-17T16:02:53.793Z,94.60
2018-05-17T16:05:20.095Z,94.60
2018-05-17T16:07:47.087Z,96.00
2018-05-17T16:10:13.369Z,95.70
2018-05-17T16:12:39.632Z,96.20
2018-05-17T16:15:05.945Z,96.70
2018-05-17T16:17:32.149Z,96.90
2018-05-17T16:19:58.422Z,97.00
2018-05-17T16:22:24.676Z,97.30
2018-05-17T16:24:50.933Z,97.40
2018-05-17T16:27:17.202Z,97.60
2018-05-17T16:29:44.202Z,97.80
2018-05-17T16:32:10.462Z,97.70
2018-05-17T16:34:36.709Z,97.90
2018-05-17T16:37:02.959Z,98.10
2018-05-17T16:39:29.257Z,98.20
2018-05-17T16:41:55.519Z,98.30
2018-05-17T16:44:21.765Z,98.60
2018-05-17T16:46:48.029Z,98.80
2018-05-17T16:49:15.012Z,99.10
2018-05-17T16:51:41.245Z,99.10
2018-05-17T16:54:08.263Z,99.40
2018-05-17T16:56:34.523Z,99.40
2018-05-17T16:59:00.755Z,99.50
2018-05-17T17:01:27.046Z,99.60
2018-05-17T17:03:53.269Z,99.80
2018-05-17T17:06:20.248Z,99.90
2018-05-17T17:08:46.533Z,99.90
2018-05-17T17:11:12.825Z,99.90
2018-05-17T17:13:39.090Z,99.90
2018-05-17T17:16:05.477Z,99.90
2018-05-17T17:18:31.719Z,99.90
2018-05-17T17:20:58.328Z,99.90
2018-05-17T17:23:24.596Z,99.90
2018-05-17T17:25:50.832Z,99.90
2018-05-17T17:28:17.131Z,99.90
2018-05-17T17:30:43.447Z,99.90
2018-05-17T17:33:10.451Z,99.90
2018-05-17T17:35:36.712Z,99.90
2018-05-17T17:38:03.016Z,99.90
2018-05-17T17:40:35.277Z,99.90
2018-05-17T17:43:01.582Z,99.90
2018-05-17T17:45:27.907Z,99.90
2018-05-17T17:47:54.190Z,99.90
2018-05-17T17:50:21.227Z,99.90
2018-05-17T17:52:47.583Z,99.90
2018-05-17T17:55:14.650Z,99.90
2018-05-17T17:57:41.696Z,99.90
2018-05-17T18:00:08.033Z,99.90
2018-05-17T18:02:34.321Z,99.80
2018-05-17T18:05:00.585Z,99.80
2018-05-17T18:07:26.927Z,99.80
2018-05-17T18:09:53.248Z,99.80
2018-05-17T18:12:19.540Z,99.70
2018-05-17T18:14:45.847Z,99.90
2018-05-17T18:17:12.136Z,99.70
2018-05-17T18:19:38.462Z,99.50
2018-05-17T18:22:05.073Z,99.50
2018-05-17T18:24:31.363Z,99.30
2018-05-17T18:26:57.715Z,99.40
2018-05-17T18:29:24.861Z,99.70
2018-05-17T18:31:51.184Z,99.70
2018-05-17T18:34:17.486Z,99.70
2018-05-17T18:36:44.032Z,99.70
2018-05-17T18:39:10.346Z,99.70
2018-05-17T18:41:36.643Z,99.80
2018-05-17T18:44:02.998Z,99.90
2018-05-17T18:46:29.286Z,99.90
2018-05-17T18:48:55.618Z,99.90
2018-05-17T18:51:21.922Z,99.90
2018-05-17T18:53:48.825Z,99.90
2018-05-17T18:56:15.875Z,99.90
2018-05-17T18:58:42.193Z,99.90
2018-05-17T19:01:08.524Z,99.90
2018-05-17T19:03:34.831Z,99.90
2018-05-17T19:06:01.162Z,99.90
2018-05-17T19:08:28.111Z,99.90
2018-05-17T19:10:55.144Z,99.90
2018-05-17T19:13:21.502Z,99.90
2018-05-17T19:15:48.058Z,99.90
2018-05-17T19:18:15.133Z,99.90
2018-05-17T19:20:42.213Z,99.90
2018-05-17T19:23:08.675Z,99.90
2018-05-17T19:25:34.994Z,99.90
2018-05-17T19:28:01.545Z,99.90
2018-05-17T19:30:28.807Z,99.90
2018-05-17T19:32:55.119Z,99.90
2018-05-17T19:35:22.210Z,99.90
2018-05-17T19:37:49.452Z,99.90
2018-05-17T19:40:15.842Z,99.90
2018-05-17T19:42:42.172Z,99.90
2018-05-17T19:45:08.536Z,99.90
2018-05-17T19:47:35.483Z,99.90
2018-05-17T19:50:01.836Z,99.90
2018-05-17T19:52:28.100Z,99.90
2018-05-17T19:54:54.400Z,99.90
2018-05-17T19:57:20.742Z,99.90
2018-05-17T19:59:47.063Z,99.90
2018-05-17T20:02:13.383Z,99.90
2018-05-17T20:04:41.356Z,99.90
2018-05-17T20:07:07.623Z,99.90
2018-05-17T20:09:34.656Z,99.90
2018-05-17T20:12:00.988Z,99.90
2018-05-17T20:14:27.303Z,99.90
2018-05-17T20:16:53.695Z,99.90
2018-05-17T20:19:19.999Z,99.90
2018-05-17T20:21:46.283Z,99.90
2018-05-17T20:24:13.459Z,99.90
2018-05-17T20:26:39.789Z,99.90
2018-05-17T20:29:06.826Z,99.90
2018-05-17T20:31:33.092Z,99.90
2018-05-17T20:34:00.155Z,99.90
2018-05-17T20:36:27.151Z,99.90
2018-05-17T20:38:53.401Z,99.90
2018-05-17T20:41:19.679Z,99.90
2018-05-17T20:43:45.943Z,99.90
2018-05-17T20:46:12.926Z,99.90
2018-05-17T20:48:39.177Z,99.90
2018-05-17T20:51:05.447Z,99.90
2018-05-17T20:53:31.692Z,99.90
2018-05-17T20:55:57.958Z,99.90
2018-05-17T20:58:24.929Z,99.90
2018-05-17T21:00:51.160Z,99.90
2018-05-17T21:03:17.416Z,99.90
2018-05-17T21:05:43.687Z,99.90
2018-05-17T21:08:09.919Z,99.90
2018-05-17T21:10:36.139Z,99.90
2018-05-17T21:13:02.410Z,99.90
2018-05-17T21:15:28.692Z,99.90
2018-05-17T21:17:54.907Z,99.90
2018-05-17T21:20:21.174Z,99.90
2018-05-17T21:22:48.230Z,99.90
2018-05-17T21:25:15.423Z,99.90
2018-05-17T21:27:41.640Z,99.90
2018-05-17T21:30:08.606Z,99.90
2018-05-17T21:32:35.622Z,99.90
2018-05-17T21:35:01.870Z,99.90
2018-05-17T21:37:28.110Z,99.90
2018-05-17T21:39:54.358Z,99.90
2018-05-17T21:42:27.494Z,99.90
2018-05-17T21:44:53.807Z,99.90
2018-05-17T21:47:20.012Z,99.90
2018-05-17T21:49:46.281Z,99.90
2018-05-17T21:52:12.494Z,99.90
2018-05-17T21:54:38.758Z,99.90
2018-05-17T21:57:04.987Z,99.90
2018-05-17T21:59:31.210Z,99.90
2018-05-17T22:01:57.458Z,99.90
2018-05-17T22:04:23.703Z,99.90
2018-05-17T22:06:49.940Z,99.90
2018-05-17T22:09:16.191Z,99.90
2018-05-17T22:11:42.426Z,99.90
2018-05-17T22:14:08.671Z,99.90
2018-05-17T22:16:34.936Z,99.90
2018-05-17T22:19:01.156Z,99.90
2018-05-17T22:21:27.390Z,99.90
2018-05-17T22:23:53.676Z,99.90
2018-05-17T22:26:20.796Z,99.90
2018-05-17T22:28:47.029Z,99.90
2018-05-17T22:31:13.296Z,99.90
2018-05-17T22:33:39.527Z,99.90
2018-05-17T22:36:05.766Z,99.90
2018-05-17T22:38:32.009Z,99.90
2018-05-17T22:40:58.246Z,99.90
2018-05-17T22:43:24.477Z,99.90
2018-05-17T22:45:50.781Z,99.90
2018-05-17T22:48:17.042Z,99.90
2018-05-17T22:50:43.281Z,99.90
2018-05-17T22:53:09.515Z,99.90
2018-05-17T22:55:35.711Z,99.90
2018-05-17T22:58:14.111Z,99.90
2018-05-17T23:00:40.349Z,99.90
2018-05-17T23:03:06.552Z,99.90
2018-05-17T23:05:32.797Z,99.90
2018-05-17T23:07:59.007Z,99.90
2018-05-17T23:10:25.989Z,99.90
2018-05-17T23:12:52.204Z,99.90
2018-05-17T23:15:19.177Z,99.90
2018-05-17T23:17:45.407Z,99.90
2018-05-17T23:20:12.367Z,99.90
2018-05-17T23:22:39.375Z,99.90
2018-05-17T23:25:07.603Z,99.90
2018-05-17T23:27:34.795Z,99.90
2018-05-17T23:30:01.055Z,99.90
2018-05-17T23:32:27.296Z,99.90
2018-05-17T23:34:53.541Z,99.90
2018-05-17T23:37:20.744Z,99.90
2018-05-17T23:39:47.021Z,99.90
2018-05-17T23:42:13.291Z,99.90
2018-05-17T23:44:39.529Z,99.90
2018-05-17T23:47:05.745Z,99.90
2018-05-17T23:49:32.007Z,99.90
2018-05-17T23:51:58.239Z,99.90
2018-05-17T23:54:24.445Z,99.90
2018-05-17T23:56:51.455Z,99.90
2018-05-17T23:59:17.686Z,99.90
